Time;durP1;ratioP1;P1;durP2;ratioP2;P2;SDS_P1;SDS_P2;PMS_P1;PMS_P2;Temp;Humidity;BMP_temperature;BMP_pressure;BME280_temperature;BME280_humidity;BME280_pressure;Samples;Min_cycle;Max_cycle;Signal;HPM_P1;HPM_P2
2022/03/28 00:01:33;;;;;;;92.82;45.60;;;8.40;73.40;;;;;;5001373;28;20072;-69
2022/03/28 00:04:00;;;;;;;64.07;27.02;;;8.40;73.00;;;;;;5000485;28;20029;-72
2022/03/28 00:06:26;;;;;;;210.80;93.35;;;8.30;71.80;;;;;;5003959;28;20035;-66
2022/03/28 00:08:52;;;;;;;118.00;51.88;;;8.20;71.10;;;;;;4994865;28;20042;-72
2022/03/28 00:11:19;;;;;;;51.67;19.13;;;8.20;70.80;;;;;;4994682;28;20066;-72
2022/03/28 00:13:45;;;;;;;26.70;12.65;;;8.10;71.30;;;;;;5004605;28;20025;-71
2022/03/28 00:16:12;;;;;;;23.25;11.77;;;8.10;71.60;;;;;;5001615;28;20018;-71
2022/03/28 00:18:39;;;;;;;85.75;40.03;;;8.10;71.90;;;;;;5014371;28;20032;-73
2022/03/28 00:21:05;;;;;;;60.83;27.95;;;8.20;71.30;;;;;;5009645;28;20395;-71
2022/03/28 00:23:32;;;;;;;34.92;16.58;;;8.10;71.70;;;;;;5013995;28;20111;-72
2022/03/28 00:26:01;;;;;;;35.63;15.35;;;8.10;72.50;;;;;;5014390;28;20030;-71
2022/03/28 00:28:27;;;;;;;31.02;12.85;;;8.10;70.50;;;;;;5001363;28;20117;-73
2022/03/28 00:30:53;;;;;;;26.77;12.80;;;8.00;68.30;;;;;;5013648;28;20396;-71
2022/03/28 00:33:19;;;;;;;17.15;8.00;;;7.90;65.80;;;;;;5008238;28;20026;-69
2022/03/28 00:35:45;;;;;;;18.65;8.27;;;7.90;63.70;;;;;;5008186;28;20034;-70
2022/03/28 00:38:11;;;;;;;20.23;8.43;;;7.90;62.60;;;;;;4994292;28;20049;-71
2022/03/28 00:40:38;;;;;;;14.63;6.65;;;7.70;62.30;;;;;;5000943;28;20061;-70
2022/03/28 00:43:06;;;;;;;10.43;5.22;;;7.70;63.70;;;;;;5013933;28;20515;-72
2022/03/28 00:45:33;;;;;;;9.00;4.63;;;7.60;66.00;;;;;;4998622;28;20034;-72
2022/03/28 00:48:00;;;;;;;15.20;5.25;;;7.60;65.60;;;;;;5007611;28;20030;-72
2022/03/28 00:50:28;;;;;;;18.10;5.60;;;7.60;64.90;;;;;;5000565;28;20070;-71
2022/03/28 00:52:54;;;;;;;17.17;6.50;;;7.60;64.70;;;;;;5006715;28;20026;-71
2022/03/28 00:55:21;;;;;;;14.18;6.07;;;7.70;64.50;;;;;;5005944;28;20026;-72
2022/03/28 00:57:47;;;;;;;14.73;7.43;;;7.70;64.50;;;;;;5006254;28;20026;-72
2022/03/28 01:00:14;;;;;;;16.45;7.20;;;7.70;63.10;;;;;;5005317;28;20436;-72
2022/03/28 01:02:40;;;;;;;18.02;5.57;;;7.60;61.60;;;;;;4994301;28;20030;-72
2022/03/28 01:05:06;;;;;;;12.80;6.72;;;7.70;61.70;;;;;;4995441;28;20053;-72
2022/03/28 01:07:32;;;;;;;14.40;5.75;;;7.60;61.70;;;;;;5004436;28;20023;-73
2022/03/28 01:10:01;;;;;;;14.93;5.82;;;7.60;62.00;;;;;;5006386;28;20041;-73
2022/03/28 01:12:30;;;;;;;15.00;5.00;;;7.70;62.40;;;;;;5013357;28;20025;-73
2022/03/28 01:14:56;;;;;;;14.88;5.20;;;7.70;62.50;;;;;;5007873;28;20022;-72
2022/03/28 01:20:09;;;;;;;11.80;5.78;;;7.60;62.40;;;;;;4993936;28;20030;-71
2022/03/28 01:22:35;;;;;;;13.02;6.30;;;7.60;62.40;;;;;;4993703;28;20109;-71
2022/03/28 01:25:04;;;;;;;16.98;6.80;;;7.60;64.00;;;;;;4993463;28;20034;-67
2022/03/28 01:27:30;;;;;;;17.58;6.22;;;7.60;63.90;;;;;;4993995;28;20030;-71
2022/03/28 01:29:56;;;;;;;20.60;7.30;;;7.60;63.40;;;;;;4993431;28;20038;-72
2022/03/28 01:32:22;;;;;;;20.80;10.15;;;7.60;63.40;;;;;;4993378;28;20037;-70
2022/03/28 01:34:48;;;;;;;25.63;11.38;;;7.50;64.50;;;;;;4994493;28;20041;-71
2022/03/28 01:37:13;;;;;;;22.23;8.80;;;7.50;65.40;;;;;;5010631;28;20491;-72
2022/03/28 01:39:39;;;;;;;15.70;6.80;;;7.50;66.00;;;;;;5003624;28;20037;-72
2022/03/28 01:42:05;;;;;;;14.95;6.82;;;7.40;65.30;;;;;;4993580;28;20030;-71
2022/03/28 01:44:31;;;;;;;20.67;10.57;;;7.20;65.10;;;;;;5007901;28;20045;-72
2022/03/28 01:46:57;;;;;;;17.00;8.50;;;7.20;64.80;;;;;;5004901;28;20491;-72
2022/03/28 01:49:23;;;;;;;19.75;10.77;;;7.20;64.40;;;;;;5003359;28;20033;-71
2022/03/28 01:51:50;;;;;;;23.80;10.18;;;7.00;66.40;;;;;;5012287;28;20037;-72
2022/03/28 01:54:16;;;;;;;35.40;18.35;;;6.90;69.70;;;;;;5012236;28;20491;-72
2022/03/28 01:56:42;;;;;;;31.42;16.25;;;6.90;70.60;;;;;;5004477;28;20022;-72
2022/03/28 01:59:09;;;;;;;26.00;13.10;;;6.90;70.60;;;;;;5012156;28;20527;-72
2022/03/28 02:01:35;;;;;;;22.02;10.52;;;7.00;70.50;;;;;;5027632;28;20100;-71
2022/03/28 02:04:02;;;;;;;22.98;12.13;;;6.90;70.10;;;;;;5013041;28;20112;-73
2022/03/28 02:06:28;;;;;;;25.10;11.55;;;6.90;70.20;;;;;;5012817;28;20423;-73
2022/03/28 02:08:57;;;;;;;22.38;11.52;;;6.90;69.60;;;;;;5012198;28;20045;-73
2022/03/28 02:11:23;;;;;;;22.67;11.07;;;7.00;69.50;;;;;;5012383;28;20026;-73
2022/03/28 02:13:49;;;;;;;22.10;10.93;;;6.90;69.50;;;;;;5012200;28;20026;-70
2022/03/28 02:16:15;;;;;;;26.50;12.60;;;7.00;69.90;;;;;;5011945;28;20029;-70
2022/03/28 02:18:40;;;;;;;32.70;14.73;;;6.90;70.50;;;;;;5012257;28;20026;-70
2022/03/28 02:21:06;;;;;;;31.33;13.75;;;6.80;70.30;;;;;;5012519;28;20033;-72
2022/03/28 02:23:32;;;;;;;23.60;12.55;;;6.80;70.90;;;;;;5012108;28;20033;-71
2022/03/28 02:25:59;;;;;;;29.02;14.93;;;6.70;71.20;;;;;;5012299;28;20380;-71
2022/03/28 02:28:25;;;;;;;26.63;15.95;;;6.70;71.50;;;;;;5011690;28;20080;-72
2022/03/28 02:30:51;;;;;;;33.05;15.77;;;6.60;72.20;;;;;;5011925;28;20061;-71
2022/03/28 02:33:17;;;;;;;32.97;15.13;;;6.60;72.60;;;;;;5011288;28;20053;-72
2022/03/28 02:35:43;;;;;;;23.67;12.93;;;6.60;72.60;;;;;;5011283;28;20025;-73
2022/03/28 02:38:09;;;;;;;22.65;12.77;;;6.60;72.70;;;;;;5011239;28;20025;-71
2022/03/28 02:40:38;;;;;;;34.72;12.85;;;6.50;72.80;;;;;;5011275;28;20030;-72
2022/03/28 02:43:05;;;;;;;34.78;17.77;;;6.50;73.60;;;;;;5011304;28;20223;-73
2022/03/28 02:45:32;;;;;;;36.53;17.10;;;6.40;74.80;;;;;;5011346;28;20085;-72
2022/03/28 02:47:59;;;;;;;30.67;17.58;;;6.40;74.80;;;;;;5010144;28;20074;-72
2022/03/28 02:50:26;;;;;;;39.13;16.77;;;6.30;75.50;;;;;;5011347;28;20038;-71
2022/03/28 02:53:00;;;;;;;26.13;13.25;;;6.30;75.90;;;;;;5011505;28;20133;-72
2022/03/28 02:55:26;;;;;;;32.20;13.68;;;6.10;77.30;;;;;;5011317;28;20521;-71
2022/03/28 02:57:52;;;;;;;31.15;15.25;;;6.20;80.60;;;;;;5015637;28;20032;-72
2022/03/28 03:00:18;;;;;;;34.28;14.70;;;6.20;82.50;;;;;;5013806;28;20392;-70
2022/03/28 03:02:44;;;;;;;28.42;13.15;;;6.30;88.90;;;;;;5015241;28;20022;-71
2022/03/28 03:05:12;;;;;;;24.13;11.52;;;6.30;93.90;;;;;;5015751;28;20030;-71
2022/03/28 03:07:38;;;;;;;25.25;11.63;;;6.20;95.90;;;;;;5015612;28;20476;-72
2022/03/28 03:10:05;;;;;;;27.80;13.63;;;6.20;97.70;;;;;;5015261;28;20507;-72
2022/03/28 03:12:31;;;;;;;23.77;11.90;;;5.80;99.90;;;;;;5014213;28;20053;-72
2022/03/28 03:14:57;;;;;;;26.60;11.10;;;5.80;99.90;;;;;;5015446;28;20029;-72
2022/03/28 03:17:25;;;;;;;15.93;8.38;;;5.70;99.60;;;;;;5014617;28;20033;-71
2022/03/28 03:19:51;;;;;;;20.45;10.25;;;5.60;99.90;;;;;;5013531;28;20028;-71
2022/03/28 03:22:29;;;;;;;26.42;9.93;;;5.60;99.30;;;;;;5014377;28;20030;-72
2022/03/28 03:24:55;;;;;;;22.08;8.32;;;5.60;98.80;;;;;;5015056;28;20025;-71
2022/03/28 03:27:22;;;;;;;22.98;11.77;;;5.60;97.60;;;;;;5014518;28;20030;-72
2022/03/28 03:29:47;;;;;;;26.75;9.88;;;5.70;96.80;;;;;;5014540;28;20603;-72
2022/03/28 03:32:16;;;;;;;17.35;8.10;;;5.70;95.00;;;;;;5015219;28;20026;-71
2022/03/28 03:34:51;;;;;;;19.27;9.13;;;5.80;94.70;;;;;;5030438;28;20033;-72
2022/03/28 03:37:17;;;;;;;20.65;10.38;;;5.80;94.90;;;;;;5030058;28;20113;-71
2022/03/28 03:39:46;;;;;;;24.42;10.68;;;5.80;95.90;;;;;;5014456;28;20451;-67
2022/03/28 03:42:12;;;;;;;23.98;12.13;;;5.90;96.10;;;;;;5014736;28;20030;-72
2022/03/28 03:44:40;;;;;;;19.80;10.38;;;5.90;94.80;;;;;;5014629;28;20065;-72
2022/03/28 03:47:07;;;;;;;23.80;10.48;;;5.80;95.30;;;;;;5014602;28;20476;-71
2022/03/28 03:49:33;;;;;;;28.45;11.85;;;5.90;95.50;;;;;;5029977;28;20116;-71
2022/03/28 03:51:58;;;;;;;28.63;13.48;;;5.90;95.10;;;;;;5014459;28;20476;-71
2022/03/28 03:54:24;;;;;;;43.88;21.98;;;6.00;94.50;;;;;;5014310;28;20086;-72
2022/03/28 03:56:50;;;;;;;38.60;19.88;;;6.10;93.90;;;;;;5014474;28;20376;-72
2022/03/28 03:59:16;;;;;;;38.95;20.48;;;6.10;93.50;;;;;;5014184;28;20641;-72
2022/03/28 04:01:42;;;;;;;42.83;21.33;;;6.10;92.80;;;;;;5012920;28;20038;-73
2022/03/28 04:04:10;;;;;;;28.83;15.90;;;6.10;93.00;;;;;;5014278;28;20026;-71
2022/03/28 04:06:36;;;;;;;22.95;11.75;;;6.10;93.20;;;;;;5013433;28;20062;-72
2022/03/28 04:09:01;;;;;;;24.05;11.82;;;6.00;93.40;;;;;;5014001;28;20065;-71
2022/03/28 04:11:27;;;;;;;22.58;10.73;;;6.00;93.80;;;;;;5013035;28;20481;-72
2022/03/28 04:13:53;;;;;;;25.08;12.35;;;5.90;94.50;;;;;;5013288;28;20380;-72
2022/03/28 04:16:19;;;;;;;15.02;7.90;;;5.90;95.00;;;;;;5010297;28;20524;-72
2022/03/28 04:18:44;;;;;;;20.15;8.93;;;5.90;96.80;;;;;;5000386;28;20084;-71
2022/03/28 04:21:10;;;;;;;18.35;9.10;;;5.90;97.60;;;;;;5008972;28;20033;-73
2022/03/28 04:23:39;;;;;;;22.45;9.18;;;5.90;98.30;;;;;;5012456;28;20044;-70
2022/03/28 04:26:07;;;;;;;20.98;9.15;;;5.80;98.40;;;;;;5013583;28;20128;-71
2022/03/28 04:28:33;;;;;;;20.15;8.75;;;5.80;98.50;;;;;;5010893;28;20053;-72
2022/03/28 04:31:00;;;;;;;21.25;9.95;;;5.80;98.50;;;;;;5012922;28;20027;-73
2022/03/28 04:33:25;;;;;;;25.30;10.02;;;5.80;98.70;;;;;;5014003;28;20032;-71
2022/03/28 04:35:54;;;;;;;30.85;11.38;;;5.80;99.10;;;;;;5013965;28;20160;-72
2022/03/28 04:38:20;;;;;;;29.52;12.13;;;5.80;98.90;;;;;;5013779;28;20022;-73
2022/03/28 04:40:46;;;;;;;23.63;10.25;;;5.90;98.50;;;;;;5013578;28;20113;-73
2022/03/28 04:43:12;;;;;;;27.75;11.07;;;5.90;99.30;;;;;;5013404;28;20018;-73
2022/03/28 04:45:41;;;;;;;29.48;12.32;;;5.90;99.30;;;;;;5012240;28;20050;-73
2022/03/28 04:48:07;;;;;;;25.10;11.63;;;6.20;99.50;;;;;;5013145;28;20192;-72
2022/03/28 04:50:33;;;;;;;24.38;12.18;;;7.00;98.70;;;;;;5013484;28;20025;-71
2022/03/28 04:52:59;;;;;;;29.58;12.88;;;7.60;95.70;;;;;;5013108;28;20038;-73
2022/03/28 04:55:25;;;;;;;25.67;11.27;;;8.20;92.70;;;;;;5013589;28;20030;-72
2022/03/28 04:57:58;;;;;;;25.48;11.50;;;8.70;90.50;;;;;;5013710;28;20499;-73
2022/03/28 05:00:25;;;;;;;19.05;10.48;;;9.30;87.10;;;;;;5011063;28;20117;-67
2022/03/28 05:02:51;;;;;;;31.17;10.90;;;9.70;84.80;;;;;;5028116;28;20496;-73
2022/03/28 05:05:20;;;;;;;21.15;10.75;;;9.90;82.50;;;;;;5028171;28;20029;-72
2022/03/28 05:07:46;;;;;;;28.98;12.30;;;10.70;81.10;;;;;;5012326;28;20502;-72
2022/03/28 05:10:12;;;;;;;24.85;12.45;;;11.40;78.40;;;;;;5012713;28;20500;-73
2022/03/28 05:12:38;;;;;;;32.05;16.95;;;11.70;76.00;;;;;;5013236;28;20476;-71
2022/03/28 05:15:04;;;;;;;31.27;13.55;;;11.80;73.20;;;;;;5012726;28;20030;-73
2022/03/28 05:17:31;;;;;;;24.25;13.70;;;12.20;73.10;;;;;;5012918;28;20658;-71
2022/03/28 05:19:59;;;;;;;21.75;12.68;;;12.50;72.30;;;;;;5011517;28;20025;-73
2022/03/28 05:22:25;;;;;;;28.63;13.55;;;12.70;73.30;;;;;;5012623;28;20203;-72
2022/03/28 05:24:53;;;;;;;30.05;15.80;;;13.30;72.30;;;;;;5012526;28;20056;-72
2022/03/28 05:27:19;;;;;;;40.00;20.27;;;13.60;70.50;;;;;;5012420;28;20576;-73
2022/03/28 05:29:47;;;;;;;39.50;23.85;;;14.50;67.90;;;;;;5012313;28;20463;-72
2022/03/28 05:32:13;;;;;;;47.55;24.33;;;14.60;66.90;;;;;;5012536;28;20034;-73
2022/03/28 05:34:39;;;;;;;42.20;22.85;;;14.60;66.40;;;;;;5027496;28;20022;-72
2022/03/28 05:37:09;;;;;;;38.22;22.20;;;14.90;66.30;;;;;;5012407;28;20034;-73
2022/03/28 05:39:36;;;;;;;38.35;21.35;;;14.90;65.60;;;;;;5012081;28;20500;-73
2022/03/28 05:42:03;;;;;;;44.03;20.00;;;14.30;65.90;;;;;;5012050;28;20451;-73
2022/03/28 05:44:30;;;;;;;41.88;22.35;;;13.50;67.60;;;;;;5011875;28;20084;-73
2022/03/28 05:46:56;;;;;;;46.25;21.55;;;12.20;67.80;;;;;;5012450;28;20030;-73
2022/03/28 05:49:24;;;;;;;40.67;18.60;;;10.70;69.90;;;;;;5012281;28;20462;-73
2022/03/28 05:51:52;;;;;;;31.80;16.38;;;10.10;73.80;;;;;;5012080;28;20446;-73
2022/03/28 05:54:18;;;;;;;21.75;13.13;;;9.10;78.50;;;;;;5010563;28;20079;-73
2022/03/28 05:56:48;;;;;;;28.40;12.70;;;8.60;85.20;;;;;;5011925;28;20373;-73
2022/03/28 05:59:14;;;;;;;24.05;11.82;;;8.40;88.20;;;;;;5011421;28;20534;-72
2022/03/28 06:01:40;;;;;;;26.38;13.07;;;8.10;91.80;;;;;;5011312;28;20258;-72
2022/03/28 06:04:13;;;;;;;26.63;12.90;;;8.10;93.60;;;;;;5012263;28;20472;-74
2022/03/28 06:06:39;;;;;;;24.85;13.05;;;8.10;94.50;;;;;;5010569;28;20041;-73
2022/03/28 06:09:05;;;;;;;20.33;12.00;;;8.30;95.30;;;;;;5010940;28;20048;-71
2022/03/28 06:11:31;;;;;;;19.30;10.75;;;8.40;93.40;;;;;;5011868;28;20038;-73
2022/03/28 06:13:57;;;;;;;20.25;10.25;;;8.80;91.70;;;;;;5011972;28;20028;-73
2022/03/28 06:16:24;;;;;;;24.00;11.13;;;8.60;88.80;;;;;;5012047;28;20022;-70
2022/03/28 06:18:50;;;;;;;21.23;10.90;;;8.70;88.70;;;;;;5011774;28;20096;-74
2022/03/28 06:21:16;;;;;;;22.05;11.80;;;8.70;89.60;;;;;;5012256;28;20080;-73
2022/03/28 06:23:42;;;;;;;25.80;11.73;;;9.00;89.10;;;;;;5010967;28;20030;-73
2022/03/28 06:26:10;;;;;;;24.20;11.95;;;9.20;90.50;;;;;;5011248;28;20492;-74
2022/03/28 06:28:39;;;;;;;23.52;13.05;;;9.50;85.70;;;;;;5011798;28;20026;-72
2022/03/28 06:31:06;;;;;;;21.92;12.15;;;9.70;83.50;;;;;;5011556;28;20029;-73
2022/03/28 06:33:32;;;;;;;22.23;13.35;;;9.60;79.70;;;;;;5012040;28;20022;-74
2022/03/28 06:36:09;;;;;;;21.48;11.60;;;9.80;80.00;;;;;;5011475;28;20439;-74
2022/03/28 06:38:35;;;;;;;21.92;11.32;;;9.70;79.80;;;;;;5011753;28;20075;-74
2022/03/28 06:41:04;;;;;;;20.95;10.40;;;9.90;78.60;;;;;;5011372;28;20057;-75
2022/03/28 06:43:30;;;;;;;23.08;11.82;;;9.90;77.00;;;;;;5011540;28;20380;-73
2022/03/28 06:45:56;;;;;;;25.45;11.52;;;10.10;76.50;;;;;;5011581;28;20289;-74
2022/03/28 06:48:22;;;;;;;24.23;13.32;;;10.50;76.30;;;;;;5011687;28;20156;-71
2022/03/28 06:50:48;;;;;;;21.08;11.85;;;10.80;75.40;;;;;;5011588;28;20057;-72
2022/03/28 06:53:14;;;;;;;27.95;13.77;;;10.90;74.00;;;;;;5011225;28;20038;-73
2022/03/28 06:55:40;;;;;;;34.65;12.90;;;11.10;74.70;;;;;;5010866;28;20037;-72
2022/03/28 06:58:06;;;;;;;23.73;11.77;;;11.20;72.20;;;;;;5011150;28;20030;-73
2022/03/28 07:00:34;;;;;;;25.35;13.35;;;11.40;72.90;;;;;;5011497;28;20487;-73
2022/03/28 07:03:00;;;;;;;26.92;13.68;;;11.70;74.20;;;;;;5010581;28;20022;-72
2022/03/28 07:05:28;;;;;;;29.45;13.68;;;11.70;72.70;;;;;;5010735;28;20058;-74
2022/03/28 07:07:56;;;;;;;21.98;11.48;;;11.80;72.00;;;;;;5010372;28;20022;-72
2022/03/28 07:10:21;;;;;;;26.55;12.45;;;12.10;70.30;;;;;;5010425;28;20425;-73
2022/03/28 07:12:48;;;;;;;24.38;12.52;;;12.00;69.70;;;;;;5009792;28;20028;-73
2022/03/28 07:15:14;;;;;;;22.38;12.23;;;12.20;70.90;;;;;;5011426;28;20053;-73
2022/03/28 07:17:52;;;;;;;24.60;11.65;;;12.20;69.60;;;;;;5010855;28;20435;-72
2022/03/28 07:20:21;;;;;;;22.52;11.90;;;12.70;69.60;;;;;;5009954;28;20038;-73
2022/03/28 07:22:47;;;;;;;24.70;11.82;;;12.80;68.50;;;;;;5011088;28;20074;-73
2022/03/28 07:25:13;;;;;;;23.63;11.05;;;13.10;69.10;;;;;;5011062;28;20030;-73
2022/03/28 07:27:40;;;;;;;18.50;10.48;;;13.30;68.60;;;;;;5010992;28;20389;-77
2022/03/28 07:30:08;;;;;;;21.85;11.95;;;13.30;67.50;;;;;;5011181;28;20076;-72
2022/03/28 07:32:35;;;;;;;20.17;10.85;;;13.80;69.60;;;;;;5011002;28;20045;-75
2022/03/28 07:35:02;;;;;;;20.40;12.07;;;14.10;68.50;;;;;;5011173;28;20498;-73
2022/03/28 07:37:28;;;;;;;22.08;10.77;;;14.20;66.60;;;;;;5010907;28;20044;-74
2022/03/28 07:39:55;;;;;;;18.45;8.68;;;14.10;64.20;;;;;;5011188;28;20117;-73
2022/03/28 07:42:21;;;;;;;17.25;9.85;;;14.20;64.00;;;;;;5011930;28;20049;-75
2022/03/28 07:44:48;;;;;;;18.67;9.93;;;14.30;65.20;;;;;;5013993;28;20695;-74
2022/03/28 07:47:14;;;;;;;21.65;9.77;;;14.10;62.90;;;;;;5014686;28;20022;-72
2022/03/28 07:49:40;;;;;;;17.35;9.00;;;14.40;64.70;;;;;;5014622;28;20048;-73
2022/03/28 07:52:08;;;;;;;19.15;9.02;;;14.10;63.00;;;;;;5014589;28;20371;-72
2022/03/28 07:54:36;;;;;;;17.02;8.32;;;14.30;63.20;;;;;;5014447;28;20026;-73
2022/03/28 07:57:02;;;;;;;18.25;8.25;;;14.40;63.70;;;;;;5014561;28;20021;-74
2022/03/28 07:59:29;;;;;;;16.10;8.40;;;14.70;62.10;;;;;;5014499;28;20022;-72
2022/03/28 08:01:55;;;;;;;15.07;7.35;;;14.80;60.70;;;;;;5013931;28;20026;-73
2022/03/28 08:04:21;;;;;;;19.08;8.75;;;15.10;63.10;;;;;;5014496;28;20044;-74
2022/03/28 08:06:47;;;;;;;19.63;6.95;;;15.20;63.00;;;;;;5014150;28;20025;-75
2022/03/28 08:09:12;;;;;;;12.30;5.75;;;15.20;61.60;;;;;;5014161;28;20649;-73
2022/03/28 08:11:38;;;;;;;9.95;5.63;;;15.00;57.80;;;;;;5013255;28;20424;-74
2022/03/28 08:14:04;;;;;;;13.30;5.88;;;15.10;58.50;;;;;;5014464;28;20053;-73
2022/03/28 08:16:31;;;;;;;24.35;6.03;;;15.20;58.40;;;;;;5013186;28;20033;-73
2022/03/28 08:18:57;;;;;;;13.05;4.95;;;15.30;57.30;;;;;;5013845;28;20476;-73
2022/03/28 08:21:23;;;;;;;15.15;5.75;;;15.50;56.50;;;;;;5014089;28;20033;-76
2022/03/28 08:23:49;;;;;;;12.93;5.22;;;15.60;57.20;;;;;;5012802;28;20491;-66
2022/03/28 08:26:15;;;;;;;13.93;6.28;;;15.70;55.70;;;;;;5008672;28;20037;-72
2022/03/28 08:28:41;;;;;;;11.35;5.00;;;16.00;57.50;;;;;;5001797;28;20092;-72
2022/03/28 08:31:07;;;;;;;13.07;4.97;;;15.90;54.00;;;;;;4996389;28;20464;-70
2022/03/28 08:33:33;;;;;;;14.60;6.05;;;15.90;53.30;;;;;;4997334;28;20030;-72
2022/03/28 08:35:59;;;;;;;11.25;5.90;;;15.90;54.50;;;;;;5004668;28;20108;-70
2022/03/28 08:38:25;;;;;;;12.80;6.68;;;15.90;53.70;;;;;;5005445;28;20049;-71
2022/03/28 08:40:52;;;;;;;12.40;5.30;;;16.10;54.80;;;;;;5002600;28;20038;-73
2022/03/28 08:43:20;;;;;;;15.93;6.15;;;16.50;57.40;;;;;;5000114;28;20027;-73
2022/03/28 08:45:49;;;;;;;12.90;6.05;;;16.80;55.70;;;;;;4998283;28;20042;-73
2022/03/28 08:48:16;;;;;;;22.00;6.15;;;16.50;54.40;;;;;;5000466;28;20106;-71
2022/03/28 08:50:49;;;;;;;11.25;5.60;;;16.60;54.10;;;;;;4997594;28;20028;-73
2022/03/28 08:53:16;;;;;;;13.35;6.22;;;16.80;55.60;;;;;;4996772;28;20030;-70
2022/03/28 08:55:44;;;;;;;12.73;6.50;;;16.90;53.20;;;;;;4997888;28;20034;-73
2022/03/28 08:58:11;;;;;;;16.40;7.20;;;17.10;52.50;;;;;;5010462;28;20026;-73
2022/03/28 09:00:37;;;;;;;15.95;7.40;;;17.40;56.30;;;;;;5010759;28;20022;-69
2022/03/28 09:03:04;;;;;;;11.82;6.32;;;17.50;54.60;;;;;;5013689;28;20034;-72
2022/03/28 09:05:35;;;;;;;15.80;6.57;;;17.80;54.00;;;;;;5013300;28;20026;-73
2022/03/28 09:08:02;;;;;;;12.35;5.22;;;18.00;56.00;;;;;;4999986;28;20026;-72
2022/03/28 09:10:33;;;;;;;16.98;7.25;;;17.80;51.40;;;;;;4994805;28;20400;-71
2022/03/28 09:13:11;;;;;;;12.80;6.18;;;17.70;52.20;;;;;;5004616;28;20092;-71
2022/03/28 09:15:53;;;;;;;12.23;5.38;;;17.50;47.10;;;;;;4994854;28;20022;-72
2022/03/28 09:18:30;;;;;;;12.85;6.45;;;17.90;51.90;;;;;;4993764;28;20050;-69
2022/03/28 09:20:56;;;;;;;12.70;5.82;;;17.80;50.00;;;;;;5012612;28;20024;-72
2022/03/28 09:23:48;;;;;;;11.73;5.35;;;18.00;51.30;;;;;;5006512;28;20430;-73
2022/03/28 09:26:22;;;;;;;11.10;5.18;;;18.00;48.50;;;;;;4992185;28;20026;-73
2022/03/28 09:28:58;;;;;;;17.35;6.55;;;18.00;49.30;;;;;;5005102;28;20034;-73
2022/03/28 09:31:44;;;;;;;10.95;5.10;;;18.20;49.60;;;;;;4990356;28;20034;-73
2022/03/28 09:34:15;;;;;;;12.20;5.25;;;18.30;47.00;;;;;;4992612;28;20114;-73
2022/03/28 09:36:53;;;;;;;9.50;5.18;;;18.40;49.00;;;;;;4993105;28;20038;-73
2022/03/28 09:39:20;;;;;;;13.45;5.75;;;18.30;47.90;;;;;;4992806;28;20036;-72
2022/03/28 09:42:07;;;;;;;9.77;4.75;;;18.20;47.40;;;;;;5008331;28;20495;-72
2022/03/28 09:44:37;;;;;;;11.68;4.63;;;18.10;46.10;;;;;;4991060;28;20050;-73
2022/03/28 09:47:11;;;;;;;9.73;4.60;;;18.30;47.50;;;;;;4991491;28;20037;-73
2022/03/28 09:49:41;;;;;;;17.52;4.38;;;18.40;48.40;;;;;;4998382;28;20379;-74
2022/03/28 09:52:18;;;;;;;10.25;4.35;;;18.70;49.10;;;;;;5018672;28;20046;-73
2022/03/28 09:54:50;;;;;;;13.02;4.18;;;18.80;47.10;;;;;;4996771;28;20030;-73
2022/03/28 09:57:25;;;;;;;9.07;4.60;;;18.90;47.00;;;;;;4992173;28;20085;-73
2022/03/28 09:59:53;;;;;;;12.75;4.47;;;19.10;49.20;;;;;;4995666;28;20022;-73
2022/03/28 10:02:25;;;;;;;10.85;3.80;;;19.30;48.20;;;;;;5010232;28;20096;-73
2022/03/28 10:04:54;;;;;;;7.40;3.95;;;19.40;49.20;;;;;;5011517;28;20057;-73
2022/03/28 10:07:20;;;;;;;5.93;3.28;;;19.50;49.80;;;;;;5012316;28;20018;-73
2022/03/28 10:09:47;;;;;;;11.95;4.63;;;19.70;48.80;;;;;;5012531;28;20052;-73
2022/03/28 10:12:14;;;;;;;12.15;4.43;;;19.90;46.40;;;;;;5012146;28;20457;-72
2022/03/28 10:14:40;;;;;;;7.95;3.60;;;19.60;45.80;;;;;;5012010;28;20034;-73
2022/03/28 10:17:06;;;;;;;6.93;3.67;;;19.50;46.70;;;;;;5011992;28;20533;-73
2022/03/28 10:19:34;;;;;;;10.23;3.88;;;19.50;46.70;;;;;;5012126;28;20038;-72
2022/03/28 10:22:05;;;;;;;6.82;3.85;;;19.00;44.10;;;;;;5012229;28;20025;-73
2022/03/28 10:24:34;;;;;;;8.55;3.78;;;19.20;45.30;;;;;;5011938;28;20117;-73
2022/03/28 10:27:02;;;;;;;10.77;4.25;;;19.30;45.50;;;;;;5011944;28;20022;-74
2022/03/28 10:29:37;;;;;;;10.05;4.05;;;19.20;42.90;;;;;;5011681;28;20034;-72
2022/03/28 10:32:15;;;;;;;6.97;3.45;;;19.20;43.80;;;;;;5011795;28;20079;-73
2022/03/28 10:34:45;;;;;;;12.90;3.53;;;18.90;42.10;;;;;;5012125;28;20034;-73
2022/03/28 10:37:23;;;;;;;12.10;4.07;;;19.10;42.60;;;;;;5012019;28;20357;-73
2022/03/28 10:39:49;;;;;;;8.85;3.83;;;19.30;43.60;;;;;;5026551;28;20132;-73
2022/03/28 10:42:24;;;;;;;12.32;4.22;;;19.30;43.30;;;;;;5011213;28;20095;-72
2022/03/28 10:45:02;;;;;;;9.43;4.80;;;19.40;45.10;;;;;;5011736;28;20056;-73
2022/03/28 10:47:55;;;;;;;9.98;4.97;;;19.40;45.20;;;;;;5011674;28;20464;-73
2022/03/28 10:50:33;;;;;;;12.27;4.70;;;19.20;44.70;;;;;;5009046;28;20050;-73
2022/03/28 10:53:12;;;;;;;7.45;4.15;;;19.30;44.80;;;;;;5009011;28;20158;-73
2022/03/28 10:55:53;;;;;;;11.48;4.55;;;19.10;43.30;;;;;;5009006;28;20042;-72
2022/03/28 10:58:49;;;;;;;6.97;4.05;;;19.30;43.70;;;;;;5009391;28;20032;-72
2022/03/28 11:01:17;;;;;;;7.40;4.10;;;19.30;45.20;;;;;;5008921;28;20085;-71
2022/03/28 11:03:47;;;;;;;10.13;3.58;;;19.50;44.40;;;;;;5009170;28;20686;-73
2022/03/28 11:06:16;;;;;;;7.22;3.72;;;19.20;43.10;;;;;;5009238;28;20038;-72
2022/03/28 11:08:45;;;;;;;11.68;4.65;;;19.60;43.80;;;;;;5009029;28;20042;-71
2022/03/28 11:11:14;;;;;;;11.85;4.07;;;19.50;47.30;;;;;;5008137;28;20049;-73
2022/03/28 11:13:40;;;;;;;8.68;4.28;;;19.40;44.80;;;;;;5009119;28;20555;-73
2022/03/28 11:16:15;;;;;;;7.18;3.92;;;19.40;46.00;;;;;;5009181;28;20030;-73
2022/03/28 11:18:41;;;;;;;11.15;4.00;;;19.60;47.60;;;;;;5009964;28;20030;-71
2022/03/28 11:21:14;;;;;;;9.18;3.97;;;19.70;47.50;;;;;;5009534;28;20229;-73
2022/03/28 11:23:42;;;;;;;9.95;3.00;;;19.70;47.30;;;;;;5013643;28;20030;-73
2022/03/28 11:26:10;;;;;;;7.68;4.18;;;19.70;46.70;;;;;;5013449;28;20046;-73
2022/03/28 11:28:38;;;;;;;13.00;4.40;;;19.40;46.30;;;;;;5016002;28;20507;-72
2022/03/28 11:31:11;;;;;;;8.07;3.30;;;19.50;47.00;;;;;;5015979;28;20026;-73
2022/03/28 11:33:48;;;;;;;9.50;3.75;;;19.60;46.60;;;;;;5014849;28;20030;-73
2022/03/28 11:36:18;;;;;;;10.48;4.10;;;19.60;46.00;;;;;;5015933;28;20046;-73
2022/03/28 11:38:49;;;;;;;6.22;3.40;;;19.70;45.60;;;;;;5016099;28;20033;-73
2022/03/28 11:41:17;;;;;;;11.73;3.92;;;19.70;46.20;;;;;;5031111;28;20399;-73
2022/03/28 11:43:49;;;;;;;9.60;3.67;;;19.90;49.10;;;;;;5015513;28;20494;-73
2022/03/28 11:46:14;;;;;;;11.98;4.13;;;19.70;46.20;;;;;;5015757;28;20061;-73
2022/03/28 11:49:00;;;;;;;10.68;3.80;;;19.80;46.40;;;;;;5015533;28;20133;-72
2022/03/28 11:51:30;;;;;;;9.57;4.00;;;19.70;46.20;;;;;;5015753;28;20029;-73
2022/03/28 11:54:01;;;;;;;11.18;4.47;;;19.80;47.50;;;;;;5015518;28;20026;-72
2022/03/28 11:56:31;;;;;;;9.48;3.97;;;19.80;47.20;;;;;;5015714;28;20044;-73
2022/03/28 11:59:08;;;;;;;7.75;3.97;;;19.80;46.20;;;;;;5015917;28;20030;-74
2022/03/28 12:01:36;;;;;;;11.40;4.15;;;19.90;45.90;;;;;;5015400;28;20030;-74
2022/03/28 12:04:02;;;;;;;6.13;3.85;;;19.90;46.00;;;;;;5015333;28;20105;-73
2022/03/28 12:06:34;;;;;;;14.95;4.03;;;19.90;44.70;;;;;;5015545;28;20084;-73
2022/03/28 12:09:01;;;;;;;7.45;3.65;;;19.90;45.70;;;;;;5015282;28;20033;-73
2022/03/28 12:11:27;;;;;;;8.20;3.08;;;19.90;44.70;;;;;;5015464;28;20034;-72
2022/03/28 12:13:54;;;;;;;11.80;3.70;;;20.10;45.70;;;;;;5015206;28;20068;-74
2022/03/28 12:16:21;;;;;;;8.30;3.53;;;20.20;45.80;;;;;;5015291;28;20365;-71
2022/03/28 12:18:48;;;;;;;8.00;3.92;;;20.00;43.50;;;;;;5015158;28;20498;-73
2022/03/28 12:21:16;;;;;;;10.90;3.67;;;20.10;43.80;;;;;;5015286;28;20460;-73
2022/03/28 12:23:42;;;;;;;6.72;3.40;;;20.10;44.10;;;;;;5014951;28;20099;-73
2022/03/28 12:26:09;;;;;;;8.02;3.20;;;20.10;42.90;;;;;;5015063;28;20535;-74
2022/03/28 12:28:38;;;;;;;8.98;3.17;;;20.00;42.30;;;;;;5013912;28;20029;-73
2022/03/28 12:31:06;;;;;;;5.65;2.90;;;19.80;42.30;;;;;;5013932;28;20472;-75
2022/03/28 12:33:34;;;;;;;9.75;4.20;;;19.90;43.30;;;;;;5011648;28;20018;-72
2022/03/28 12:36:04;;;;;;;5.75;3.13;;;20.00;43.50;;;;;;5010486;28;20031;-73
2022/03/28 12:38:36;;;;;;;5.88;3.03;;;19.90;42.60;;;;;;5000955;28;20032;-74
2022/03/28 12:41:08;;;;;;;7.45;3.58;;;19.90;42.70;;;;;;5001089;28;20026;-72
2022/03/28 12:43:35;;;;;;;8.32;3.22;;;19.90;43.00;;;;;;4992244;28;20480;-72
2022/03/28 12:46:10;;;;;;;5.47;3.13;;;19.90;43.10;;;;;;5002614;28;20064;-72